Pascoag, Rhode Island
Current Conditions -  °F | °C
As of 3:35 AM on Saturday 20 Dec 2014 (Local Time) from KSFZ Reporting Station
Overcast Overcast  
Wind Chill: 17°   Ceiling: 2800
Heat Index: 27°   Visibility: 10mi
Dew Point: 16°   Wind: 10mph
Humidity: 64%   Direction: 10°N
Pressure: 30.15"   Gusts: NA
Location:  41.95°N, 71.7°W
Report Text: KSFZ 200835Z 01009KT 10SM OVC028 M03/M09 A3015 RMK AO1
Loading
Personal Weather Stations






























Interactive Weather Map New forecast layout! Learn more

10-Day Weather Forecast

Advertisements
Track Severe Weather on mobile